Time;durP1;ratioP1;P1;durP2;ratioP2;P2;SDS_P1;SDS_P2;PMS_P1;PMS_P2;Temp;Humidity;BMP_temperature;BMP_pressure;BME280_temperature;BME280_humidity;BME280_pressure;Samples;Min_cycle;Max_cycle;Signal;HPM_P1;HPM_P2
2021/05/22 00:01:30;;;;;;;3.50;1.00;;;12.10;99.90;;;;;;5066630;28;20189;-38
2021/05/22 00:03:56;;;;;;;2.60;1.40;;;12.10;99.90;;;;;;5069423;28;20471;-38
2021/05/22 00:06:22;;;;;;;1.57;1.30;;;12.20;99.90;;;;;;5069238;28;20853;-38
2021/05/22 00:08:48;;;;;;;3.33;0.93;;;12.20;99.90;;;;;;5066776;28;20257;-37
2021/05/22 00:11:13;;;;;;;1.27;1.00;;;12.10;99.90;;;;;;5069949;28;20488;-37
2021/05/22 00:13:39;;;;;;;8.10;2.20;;;12.20;99.90;;;;;;5074250;28;20189;-38
2021/05/22 00:16:05;;;;;;;4.53;1.43;;;12.20;99.90;;;;;;5074330;28;20220;-38
2021/05/22 00:18:30;;;;;;;3.53;1.30;;;12.10;99.90;;;;;;5087193;28;20184;-38
2021/05/22 00:20:57;;;;;;;5.20;1.30;;;12.10;99.90;;;;;;5088670;28;20212;-38
2021/05/22 00:23:23;;;;;;;3.87;1.30;;;12.10;99.90;;;;;;5065817;28;20190;-37
2021/05/22 00:25:49;;;;;;;1.97;1.10;;;12.10;99.90;;;;;;5068679;28;20908;-38
2021/05/22 00:28:14;;;;;;;8.43;1.23;;;12.00;99.90;;;;;;5075526;28;20430;-37
2021/05/22 00:30:40;;;;;;;1.90;1.50;;;12.00;99.90;;;;;;5085133;28;20216;-38
2021/05/22 00:33:06;;;;;;;2.37;1.10;;;12.00;99.90;;;;;;5087021;28;20193;-38
2021/05/22 00:35:32;;;;;;;3.57;1.27;;;12.00;99.90;;;;;;5089217;28;20220;-38
2021/05/22 00:37:57;;;;;;;3.23;1.30;;;11.90;99.90;;;;;;5086962;28;20185;-38
2021/05/22 00:40:23;;;;;;;3.43;1.17;;;11.90;99.90;;;;;;5072936;28;20204;-38
2021/05/22 00:42:49;;;;;;;3.30;1.00;;;11.80;99.90;;;;;;5074562;28;20184;-38
2021/05/22 00:45:20;;;;;;;3.57;1.60;;;11.80;99.90;;;;;;5073510;28;20197;-37
2021/05/22 00:47:55;;;;;;;2.40;1.00;;;11.80;99.90;;;;;;5068779;28;20831;-38
2021/05/22 00:50:22;;;;;;;2.73;1.20;;;11.80;99.90;;;;;;5068018;28;20505;-38
2021/05/22 00:52:47;;;;;;;3.90;1.60;;;11.80;99.90;;;;;;5064002;28;21019;-38
2021/05/22 00:55:14;;;;;;;2.47;1.10;;;11.80;99.90;;;;;;5062020;28;20500;-37
2021/05/22 00:57:40;;;;;;;1.87;0.93;;;11.70;99.90;;;;;;5075815;28;20192;-37
2021/05/22 01:00:09;;;;;;;2.90;1.00;;;11.70;99.90;;;;;;5087954;28;20439;-38
2021/05/22 01:02:36;;;;;;;2.17;1.60;;;11.60;99.90;;;;;;5081705;28;20446;-38
2021/05/22 01:05:03;;;;;;;5.50;1.20;;;11.70;99.90;;;;;;5089089;28;20636;-38
2021/05/22 01:07:28;;;;;;;1.70;0.90;;;11.70;99.90;;;;;;5086841;28;20456;-38
2021/05/22 01:09:56;;;;;;;2.17;1.00;;;11.70;99.90;;;;;;5057472;28;20463;-37
2021/05/22 01:12:28;;;;;;;1.70;1.00;;;11.70;99.90;;;;;;5075025;28;20295;-38
2021/05/22 01:15:09;;;;;;;3.60;1.23;;;11.70;99.90;;;;;;5082184;28;20497;-38
2021/05/22 01:17:39;;;;;;;2.30;1.40;;;11.70;99.90;;;;;;5086543;28;20423;-39
2021/05/22 01:20:19;;;;;;;2.70;1.43;;;11.70;99.90;;;;;;5087222;28;20467;-38
2021/05/22 01:22:49;;;;;;;1.90;1.10;;;11.70;99.90;;;;;;5084829;28;20576;-38
2021/05/22 01:25:27;;;;;;;2.70;1.10;;;11.70;99.90;;;;;;5057373;28;20419;-38
2021/05/22 01:27:53;;;;;;;3.13;1.30;;;11.70;99.90;;;;;;5067151;28;20427;-38
2021/05/22 01:30:19;;;;;;;5.90;1.40;;;11.70;99.90;;;;;;5067146;28;20467;-38
2021/05/22 01:32:45;;;;;;;1.50;1.13;;;11.70;99.90;;;;;;5067440;28;20411;-38
2021/05/22 01:35:13;;;;;;;3.53;0.97;;;11.70;99.90;;;;;;5063285;28;20741;-38
2021/05/22 01:37:39;;;;;;;2.80;1.20;;;11.70;99.90;;;;;;5077672;28;20426;-38
2021/05/22 01:40:06;;;;;;;4.73;1.00;;;11.70;99.90;;;;;;5062544;28;20430;-38
2021/05/22 01:42:33;;;;;;;2.20;1.03;;;11.70;99.90;;;;;;5075180;28;20518;-37
2021/05/22 01:45:01;;;;;;;2.70;1.30;;;11.70;99.90;;;;;;5078547;28;20480;-37
2021/05/22 01:47:27;;;;;;;4.60;1.40;;;11.60;99.90;;;;;;5065225;28;20463;-38
2021/05/22 01:49:53;;;;;;;4.20;1.20;;;11.70;99.90;;;;;;5066806;28;21020;-37
2021/05/22 01:52:22;;;;;;;2.40;1.30;;;11.70;99.90;;;;;;5067278;28;20459;-38
2021/05/22 01:54:49;;;;;;;3.43;1.10;;;11.70;99.90;;;;;;5058048;28;20192;-37
2021/05/22 01:57:16;;;;;;;2.87;1.00;;;11.60;99.90;;;;;;5069548;28;20454;-37
2021/05/22 01:59:42;;;;;;;2.30;1.07;;;11.60;99.90;;;;;;5074921;28;20431;-38
2021/05/22 02:02:08;;;;;;;3.07;1.30;;;11.60;99.90;;;;;;5077741;28;20780;-38
2021/05/22 02:04:38;;;;;;;2.80;0.80;;;11.60;99.90;;;;;;5063277;28;20425;-38
2021/05/22 02:07:04;;;;;;;3.87;1.53;;;11.60;99.90;;;;;;5077895;28;20204;-37
2021/05/22 02:09:33;;;;;;;3.87;1.33;;;11.60;99.90;;;;;;5056754;28;20730;-38
2021/05/22 02:12:00;;;;;;;2.50;1.10;;;11.60;99.90;;;;;;5069593;28;20415;-38
2021/05/22 02:14:34;;;;;;;3.87;1.13;;;11.60;99.90;;;;;;5067034;28;20423;-38
2021/05/22 02:17:04;;;;;;;2.10;1.30;;;11.60;99.90;;;;;;5082676;28;20470;-38
2021/05/22 02:19:31;;;;;;;3.83;1.57;;;11.60;99.90;;;;;;5080433;28;20482;-38
2021/05/22 02:22:03;;;;;;;1.90;1.00;;;11.60;99.90;;;;;;5086866;28;20426;-38
2021/05/22 02:24:31;;;;;;;3.47;1.23;;;11.70;99.90;;;;;;5066622;28;21015;-37
2021/05/22 02:26:58;;;;;;;4.23;1.50;;;11.60;99.90;;;;;;5062433;28;20425;-37
2021/05/22 02:29:25;;;;;;;4.30;1.27;;;11.60;99.90;;;;;;5062700;28;20466;-38
2021/05/22 02:31:52;;;;;;;2.90;1.10;;;11.60;99.90;;;;;;5076786;28;20417;-38
2021/05/22 02:34:25;;;;;;;3.80;1.00;;;11.50;99.90;;;;;;5082224;28;20421;-38
2021/05/22 02:36:54;;;;;;;1.90;1.07;;;11.60;99.90;;;;;;5066982;28;20856;-38
2021/05/22 02:39:20;;;;;;;2.47;0.90;;;11.60;99.90;;;;;;5057040;28;20435;-38
2021/05/22 02:41:49;;;;;;;4.07;1.63;;;11.50;99.90;;;;;;5066675;28;20437;-38
2021/05/22 02:44:17;;;;;;;3.07;1.07;;;11.50;99.90;;;;;;5066142;28;20924;-38
2021/05/22 02:46:46;;;;;;;2.93;1.33;;;11.50;99.90;;;;;;5066520;28;20414;-38
2021/05/22 02:49:16;;;;;;;2.00;1.00;;;11.50;99.90;;;;;;5065784;28;20419;-38
2021/05/22 02:51:44;;;;;;;5.80;1.23;;;11.50;99.90;;;;;;5066511;28;20458;-38
2021/05/22 02:54:10;;;;;;;4.03;1.30;;;11.50;99.90;;;;;;5061314;28;20431;-38
2021/05/22 02:56:36;;;;;;;3.70;1.30;;;11.50;99.90;;;;;;5057392;28;20436;-37
2021/05/22 02:59:03;;;;;;;3.97;1.33;;;11.50;99.90;;;;;;5070238;28;20549;-37
2021/05/22 03:01:30;;;;;;;2.17;1.13;;;11.50;99.90;;;;;;5068823;28;20415;-38
2021/05/22 03:03:57;;;;;;;1.90;1.13;;;11.50;99.90;;;;;;5066146;28;20419;-37
2021/05/22 03:06:23;;;;;;;2.07;1.20;;;11.50;99.90;;;;;;5066298;28;20532;-38
2021/05/22 03:08:50;;;;;;;4.37;1.47;;;11.50;99.90;;;;;;5061971;28;20452;-38
2021/05/22 03:11:17;;;;;;;3.40;1.30;;;11.50;99.90;;;;;;5063869;28;20505;-38
2021/05/22 03:13:43;;;;;;;3.17;1.20;;;11.50;99.90;;;;;;5059629;28;20644;-37
2021/05/22 03:16:09;;;;;;;2.20;1.10;;;11.50;99.90;;;;;;5073823;28;20864;-37
2021/05/22 03:18:35;;;;;;;3.90;1.00;;;11.60;99.90;;;;;;5079123;28;20205;-38
2021/05/22 03:21:01;;;;;;;5.93;1.70;;;11.60;99.90;;;;;;5085262;28;20188;-38
2021/05/22 03:23:27;;;;;;;2.60;1.00;;;11.60;99.90;;;;;;5086426;28;20601;-38
2021/05/22 03:25:53;;;;;;;4.87;1.10;;;11.60;99.90;;;;;;5069065;28;20480;-37
2021/05/22 03:28:20;;;;;;;2.10;1.10;;;11.50;99.90;;;;;;5069292;28;20435;-37
2021/05/22 03:30:46;;;;;;;6.83;1.80;;;11.50;99.90;;;;;;5081191;28;20215;-38
2021/05/22 03:33:11;;;;;;;2.37;1.17;;;11.50;99.90;;;;;;5066025;28;20784;-38
2021/05/22 03:35:37;;;;;;;3.43;1.30;;;11.50;99.90;;;;;;5065687;28;20675;-37
2021/05/22 03:38:03;;;;;;;5.13;1.10;;;11.60;99.90;;;;;;5068010;28;20200;-38
2021/05/22 03:40:28;;;;;;;2.20;0.80;;;11.50;99.90;;;;;;5058786;28;20194;-37
2021/05/22 03:42:54;;;;;;;3.30;1.17;;;11.50;99.90;;;;;;5066101;28;20216;-38
2021/05/22 03:45:20;;;;;;;3.13;1.10;;;11.50;99.90;;;;;;5069949;28;20231;-38
2021/05/22 03:47:46;;;;;;;5.20;1.20;;;11.50;99.90;;;;;;5069712;28;20665;-37
2021/05/22 03:50:12;;;;;;;2.37;1.20;;;11.50;99.90;;;;;;5068768;28;20475;-38
2021/05/22 03:52:38;;;;;;;4.67;1.13;;;11.50;99.90;;;;;;5069638;28;20811;-38
2021/05/22 03:55:05;;;;;;;2.67;1.17;;;11.50;99.90;;;;;;5064318;28;20789;-38
2021/05/22 03:57:31;;;;;;;3.10;1.00;;;11.50;99.90;;;;;;5068486;28;20420;-37
2021/05/22 03:59:57;;;;;;;4.23;2.00;;;11.50;99.90;;;;;;5082420;28;20935;-38
2021/05/22 04:02:22;;;;;;;2.43;1.17;;;11.50;99.90;;;;;;5069656;28;20824;-37
2021/05/22 04:04:48;;;;;;;2.40;0.80;;;11.50;99.90;;;;;;5069262;28;20688;-38
2021/05/22 04:07:14;;;;;;;2.67;1.03;;;11.50;99.90;;;;;;5069414;28;20238;-38
2021/05/22 04:09:39;;;;;;;2.20;1.47;;;11.50;99.90;;;;;;5067182;28;20236;-38
2021/05/22 04:12:05;;;;;;;2.27;1.07;;;11.50;99.90;;;;;;5066680;28;20700;-38
2021/05/22 04:14:31;;;;;;;3.47;1.30;;;11.50;99.90;;;;;;5070054;28;20230;-37
2021/05/22 04:16:57;;;;;;;2.10;1.00;;;11.50;99.90;;;;;;5089289;28;20930;-38
2021/05/22 04:19:23;;;;;;;2.70;0.93;;;11.50;99.90;;;;;;5085534;28;20268;-37
2021/05/22 04:21:49;;;;;;;4.67;1.63;;;11.50;99.90;;;;;;5089715;28;20479;-38
2021/05/22 04:24:15;;;;;;;1.63;1.03;;;11.60;99.90;;;;;;5086007;28;20411;-37
2021/05/22 04:26:41;;;;;;;2.90;1.20;;;11.60;99.90;;;;;;5072020;28;20502;-37
2021/05/22 04:29:06;;;;;;;4.07;1.30;;;11.60;99.90;;;;;;5076225;28;20376;-38
2021/05/22 04:31:32;;;;;;;4.00;1.50;;;11.60;99.90;;;;;;5082646;28;20272;-38
2021/05/22 04:33:57;;;;;;;3.10;1.20;;;11.50;99.90;;;;;;5068470;28;20216;-38
2021/05/22 04:36:23;;;;;;;5.00;1.70;;;11.60;99.90;;;;;;5069143;28;20227;-38
2021/05/22 04:38:49;;;;;;;4.93;1.63;;;11.60;99.90;;;;;;5066747;28;20306;-38
2021/05/22 04:41:14;;;;;;;5.80;1.57;;;11.60;99.90;;;;;;5059013;28;20695;-38
2021/05/22 04:43:40;;;;;;;3.60;1.40;;;11.60;99.90;;;;;;5068884;28;20185;-37
2021/05/22 04:46:06;;;;;;;3.53;1.37;;;11.60;99.90;;;;;;5069000;28;20188;-38
2021/05/22 04:48:32;;;;;;;2.20;1.40;;;11.60;99.90;;;;;;5066179;28;20448;-38
2021/05/22 04:50:58;;;;;;;6.27;2.40;;;11.60;99.90;;;;;;5067827;28;20570;-38
2021/05/22 04:53:24;;;;;;;4.57;1.33;;;11.60;99.90;;;;;;5068739;28;20247;-37
2021/05/22 04:55:50;;;;;;;2.63;1.27;;;11.60;99.90;;;;;;5059089;28;20796;-37
2021/05/22 04:58:15;;;;;;;4.10;1.70;;;11.60;99.90;;;;;;5072496;28;20458;-37
2021/05/22 05:00:41;;;;;;;4.07;1.70;;;11.60;99.90;;;;;;5067595;28;20419;-37
2021/05/22 05:03:07;;;;;;;3.20;1.43;;;11.60;99.90;;;;;;5067070;28;20275;-38
2021/05/22 05:05:32;;;;;;;5.30;1.50;;;11.60;99.90;;;;;;5068294;28;20661;-38
2021/05/22 05:07:59;;;;;;;6.87;1.53;;;11.70;99.90;;;;;;5068185;28;20304;-37
2021/05/22 05:10:24;;;;;;;3.73;1.90;;;11.60;99.90;;;;;;5059177;28;20286;-38
2021/05/22 05:12:53;;;;;;;2.37;1.13;;;11.70;99.90;;;;;;5060475;28;20411;-38
2021/05/22 05:15:18;;;;;;;3.10;1.30;;;11.60;99.90;;;;;;5073765;28;20232;-38
2021/05/22 05:17:44;;;;;;;5.50;1.90;;;11.60;99.90;;;;;;5087940;28;20422;-38
2021/05/22 05:20:10;;;;;;;6.77;1.50;;;11.60;99.90;;;;;;5072937;28;20184;-38
2021/05/22 05:22:36;;;;;;;4.40;1.70;;;11.60;99.90;;;;;;5074893;28;20177;-38
2021/05/22 05:25:03;;;;;;;4.57;1.63;;;11.60;99.90;;;;;;5074936;28;20991;-38
2021/05/22 05:27:29;;;;;;;3.97;1.60;;;11.60;99.90;;;;;;5063872;28;20292;-38
2021/05/22 05:29:55;;;;;;;5.30;1.30;;;11.50;99.90;;;;;;5067148;28;21033;-38
2021/05/22 05:32:20;;;;;;;3.83;1.30;;;11.60;99.90;;;;;;5067435;28;20177;-37
2021/05/22 05:34:46;;;;;;;2.80;1.50;;;11.50;99.90;;;;;;5067728;28;20592;-38
2021/05/22 05:37:12;;;;;;;8.43;1.70;;;11.50;99.90;;;;;;5078997;28;20180;-38
2021/05/22 05:39:39;;;;;;;3.70;1.97;;;11.60;99.90;;;;;;5085866;28;20649;-38
2021/05/22 05:42:05;;;;;;;3.47;1.43;;;11.60;99.90;;;;;;5055226;28;20431;-38
2021/05/22 05:44:31;;;;;;;5.13;1.60;;;11.50;99.90;;;;;;5073220;28;20426;-38
2021/05/22 05:46:57;;;;;;;3.00;1.90;;;11.60;99.90;;;;;;5087336;28;20639;-38
2021/05/22 05:49:28;;;;;;;3.90;1.67;;;11.60;99.90;;;;;;5082290;28;20188;-38
2021/05/22 05:51:57;;;;;;;4.33;1.70;;;11.60;99.90;;;;;;5088073;28;20426;-38
2021/05/22 05:54:23;;;;;;;4.70;2.00;;;11.60;99.90;;;;;;5073052;28;20428;-38
2021/05/22 05:56:49;;;;;;;7.10;1.60;;;11.60;99.90;;;;;;5066795;28;20577;-38
2021/05/22 05:59:15;;;;;;;5.93;1.67;;;11.70;99.90;;;;;;5075153;28;20954;-38
2021/05/22 06:01:40;;;;;;;5.57;1.93;;;11.70;99.90;;;;;;5065700;28;20180;-38
2021/05/22 06:04:07;;;;;;;2.83;1.47;;;11.70;99.90;;;;;;5066981;28;20600;-38
2021/05/22 06:06:33;;;;;;;3.37;1.30;;;11.80;99.90;;;;;;5067326;28;20184;-38
2021/05/22 06:08:58;;;;;;;4.30;1.30;;;11.70;99.90;;;;;;5066482;28;20477;-38
2021/05/22 06:11:28;;;;;;;2.30;1.23;;;11.80;99.90;;;;;;5057008;28;20312;-38
2021/05/22 06:13:54;;;;;;;4.20;1.47;;;11.80;99.90;;;;;;5062959;28;20212;-38
2021/05/22 06:16:26;;;;;;;6.90;1.90;;;11.70;99.90;;;;;;5081247;28;20446;-38
2021/05/22 06:18:53;;;;;;;2.30;1.50;;;11.80;99.90;;;;;;5081683;28;20181;-38
2021/05/22 06:21:19;;;;;;;2.67;1.30;;;11.70;99.90;;;;;;5082199;28;20441;-38
2021/05/22 06:23:44;;;;;;;4.40;1.60;;;11.70;99.90;;;;;;5087121;28;20426;-38
2021/05/22 06:26:10;;;;;;;3.13;1.20;;;11.70;99.90;;;;;;5066480;28;20440;-38
2021/05/22 06:28:36;;;;;;;2.60;1.40;;;11.70;99.90;;;;;;5064999;28;20200;-38
2021/05/22 06:31:04;;;;;;;5.90;1.60;;;11.70;99.90;;;;;;5065931;28;20255;-38
2021/05/22 06:33:30;;;;;;;3.23;1.67;;;11.70;99.90;;;;;;5062119;28;20185;-38
2021/05/22 06:35:56;;;;;;;5.10;1.70;;;11.60;99.90;;;;;;5061960;28;20426;-38
2021/05/22 06:38:21;;;;;;;1.40;1.17;;;11.50;99.90;;;;;;5065706;28;20184;-38
2021/05/22 06:40:48;;;;;;;4.77;1.60;;;11.60;99.90;;;;;;5061390;28;21017;-38
2021/05/22 06:43:13;;;;;;;3.13;1.03;;;11.60;99.90;;;;;;5061713;28;20186;-38
2021/05/22 06:45:40;;;;;;;5.10;1.90;;;11.60;99.90;;;;;;5074360;28;20441;-38
2021/05/22 06:48:07;;;;;;;4.33;1.47;;;11.50;99.90;;;;;;5086698;28;20491;-38
2021/05/22 06:50:34;;;;;;;2.77;1.70;;;11.50;99.90;;;;;;5072558;28;20461;-38
2021/05/22 06:53:00;;;;;;;2.10;1.27;;;11.40;99.90;;;;;;5085514;28;20427;-38
2021/05/22 06:55:26;;;;;;;3.67;1.97;;;11.50;99.90;;;;;;5082502;28;21074;-38
2021/05/22 06:57:51;;;;;;;3.33;1.20;;;11.50;99.90;;;;;;5063627;28;20884;-38
2021/05/22 07:00:18;;;;;;;2.30;1.40;;;11.50;99.90;;;;;;5068655;28;20186;-38
2021/05/22 07:02:44;;;;;;;4.20;1.57;;;11.40;99.90;;;;;;5065875;28;20197;-38
2021/05/22 07:05:10;;;;;;;3.97;1.30;;;11.30;99.90;;;;;;5067586;28;20484;-38
2021/05/22 07:07:38;;;;;;;4.23;1.27;;;11.40;99.90;;;;;;5065413;28;20208;-38
2021/05/22 07:10:05;;;;;;;1.80;1.10;;;11.40;99.90;;;;;;5069774;28;20833;-38
2021/05/22 07:12:32;;;;;;;4.37;1.77;;;11.40;99.90;;;;;;5063321;28;20487;-38
2021/05/22 07:14:57;;;;;;;3.87;1.37;;;11.40;99.90;;;;;;5066628;28;20489;-38
2021/05/22 07:17:23;;;;;;;2.60;1.63;;;11.40;99.90;;;;;;5075686;28;20513;-38
2021/05/22 07:19:49;;;;;;;5.70;1.67;;;11.40;99.90;;;;;;5069020;28;20193;-38
2021/05/22 07:22:14;;;;;;;1.33;1.23;;;11.40;99.90;;;;;;5067574;28;20600;-38
2021/05/22 07:24:41;;;;;;;2.30;1.40;;;11.40;99.90;;;;;;5061315;28;20205;-37
2021/05/22 07:27:06;;;;;;;4.50;1.40;;;11.40;99.90;;;;;;5063184;28;20212;-38
2021/05/22 07:29:32;;;;;;;2.93;1.47;;;11.40;99.90;;;;;;5065025;28;20415;-38
2021/05/22 07:31:58;;;;;;;2.03;1.37;;;11.30;99.90;;;;;;5067912;28;20195;-38
2021/05/22 07:34:24;;;;;;;2.97;1.63;;;11.30;99.90;;;;;;5067530;28;20184;-38
2021/05/22 07:36:50;;;;;;;3.60;1.73;;;11.30;99.90;;;;;;5067413;28;20783;-37
2021/05/22 07:39:16;;;;;;;1.07;0.97;;;11.40;99.90;;;;;;5068614;28;20435;-38
2021/05/22 07:41:43;;;;;;;3.30;1.43;;;11.30;99.90;;;;;;5072431;28;20207;-37
2021/05/22 07:44:09;;;;;;;4.90;1.30;;;11.30;99.90;;;;;;5069590;28;20924;-38
2021/05/22 07:46:35;;;;;;;3.13;1.37;;;11.40;99.90;;;;;;5068641;28;20585;-37
2021/05/22 07:49:02;;;;;;;2.20;1.30;;;11.40;99.90;;;;;;5082105;28;20779;-37
2021/05/22 07:51:28;;;;;;;2.00;1.33;;;11.40;99.90;;;;;;5064157;28;20490;-38
2021/05/22 07:53:54;;;;;;;1.83;1.23;;;11.20;99.90;;;;;;5067063;28;20910;-37
2021/05/22 07:56:20;;;;;;;13.70;1.30;;;11.30;99.90;;;;;;5072872;28;20199;-37
2021/05/22 07:58:46;;;;;;;4.10;1.73;;;11.30;99.90;;;;;;5057091;28;20414;-38
2021/05/22 08:01:12;;;;;;;4.47;1.70;;;11.30;99.90;;;;;;5063527;28;20186;-38
2021/05/22 08:03:37;;;;;;;4.50;1.43;;;11.30;99.90;;;;;;5076477;28;20672;-38
2021/05/22 08:06:04;;;;;;;3.30;1.30;;;11.40;99.90;;;;;;5070585;28;20419;-38
2021/05/22 08:08:29;;;;;;;1.60;1.17;;;11.30;99.90;;;;;;5066311;28;20201;-38
2021/05/22 08:10:55;;;;;;;2.73;1.20;;;11.50;99.90;;;;;;5065106;28;20466;-38
2021/05/22 08:13:21;;;;;;;2.60;1.40;;;11.40;99.90;;;;;;5059059;28;20185;-37
2021/05/22 08:15:46;;;;;;;1.97;1.20;;;11.30;99.90;;;;;;5071998;28;20178;-37
2021/05/22 08:18:12;;;;;;;2.50;1.40;;;11.40;99.90;;;;;;5065162;28;20619;-38
2021/05/22 08:20:39;;;;;;;2.30;1.17;;;11.40;99.90;;;;;;5064089;28;20549;-38
2021/05/22 08:23:05;;;;;;;3.80;1.53;;;11.40;99.90;;;;;;5077062;28;20547;-38
2021/05/22 08:25:31;;;;;;;1.60;1.23;;;11.30;99.90;;;;;;5060879;28;20558;-38
2021/05/22 08:27:57;;;;;;;2.53;1.43;;;11.40;99.90;;;;;;5065593;28;20523;-38
2021/05/22 08:30:23;;;;;;;2.30;1.47;;;11.30;99.90;;;;;;5068687;28;20854;-38
2021/05/22 08:32:49;;;;;;;3.30;1.33;;;11.40;99.90;;;;;;5072035;28;20518;-38
2021/05/22 08:35:15;;;;;;;3.20;1.27;;;11.40;99.90;;;;;;5065376;28;20434;-37
2021/05/22 08:37:40;;;;;;;4.10;1.50;;;11.40;99.90;;;;;;5069426;28;20239;-38
2021/05/22 08:40:09;;;;;;;2.13;1.50;;;11.40;99.90;;;;;;5066540;28;20212;-38
2021/05/22 08:42:35;;;;;;;2.90;1.30;;;11.30;99.90;;;;;;5063750;28;20200;-38
2021/05/22 08:45:10;;;;;;;1.37;1.00;;;11.30;99.90;;;;;;5067379;28;20434;-38
2021/05/22 08:47:36;;;;;;;3.10;1.37;;;11.30;99.90;;;;;;5071841;28;20535;-37
2021/05/22 08:50:06;;;;;;;4.40;1.30;;;11.30;99.90;;;;;;5074360;28;20454;-38
2021/05/22 08:52:32;;;;;;;2.77;0.90;;;11.30;99.90;;;;;;5071656;28;20407;-38
2021/05/22 08:54:57;;;;;;;1.50;1.10;;;11.40;99.90;;;;;;5070076;28;20500;-38
2021/05/22 08:57:23;;;;;;;1.87;0.90;;;11.40;99.90;;;;;;5070770;28;20923;-37
2021/05/22 08:59:49;;;;;;;2.10;0.90;;;11.40;99.90;;;;;;5066919;28;20199;-38
2021/05/22 09:02:19;;;;;;;2.03;1.20;;;11.40;99.90;;;;;;5065558;28;20192;-38
2021/05/22 09:05:23;;;;;;;4.50;1.30;;;11.40;99.90;;;;;;5082155;28;20623;-37
2021/05/22 09:07:51;;;;;;;3.73;1.30;;;11.30;99.90;;;;;;5010641;28;20495;-38
2021/05/22 09:10:26;;;;;;;2.37;1.07;;;11.40;99.90;;;;;;5061588;28;20459;-38
2021/05/22 09:13:00;;;;;;;6.93;1.77;;;11.40;99.90;;;;;;5065038;28;20438;-38
2021/05/22 09:15:31;;;;;;;1.90;1.53;;;11.40;99.90;;;;;;5081471;28;20426;-38
2021/05/22 09:18:12;;;;;;;5.03;1.43;;;11.40;99.90;;;;;;5074517;28;21036;-37
2021/05/22 09:20:52;;;;;;;3.70;1.40;;;11.40;99.90;;;;;;5064303;28;20509;-38
2021/05/22 09:23:35;;;;;;;3.50;1.47;;;11.40;99.90;;;;;;5068036;28;20531;-38
2021/05/22 09:26:04;;;;;;;5.30;1.70;;;11.40;99.90;;;;;;5070583;28;20431;-38
2021/05/22 09:28:34;;;;;;;2.87;1.30;;;11.40;99.90;;;;;;5062869;28;20579;-38
2021/05/22 09:31:00;;;;;;;3.70;1.30;;;11.30;99.90;;;;;;5060742;28;20475;-37
2021/05/22 09:33:28;;;;;;;2.30;1.40;;;11.30;99.90;;;;;;5076004;28;20834;-37
2021/05/22 09:35:59;;;;;;;3.67;1.40;;;11.30;99.90;;;;;;5073351;28;20424;-38
2021/05/22 09:38:51;;;;;;;1.90;1.40;;;11.20;99.90;;;;;;5066807;28;20454;-38
2021/05/22 09:41:17;;;;;;;3.77;1.40;;;11.20;99.90;;;;;;5067381;28;20522;-38
2021/05/22 09:44:09;;;;;;;3.73;1.40;;;11.30;99.90;;;;;;5055836;28;20431;-38
2021/05/22 09:46:36;;;;;;;1.80;1.20;;;11.40;99.90;;;;;;5074786;28;20283;-38
2021/05/22 09:49:07;;;;;;;3.47;1.47;;;11.30;99.90;;;;;;5084072;28;20840;-38
2021/05/22 09:51:34;;;;;;;5.33;1.97;;;11.30;99.90;;;;;;5080231;28;20479;-37
2021/05/22 09:54:00;;;;;;;6.23;1.83;;;11.30;99.90;;;;;;5085558;28;20493;-38
2021/05/22 09:56:27;;;;;;;6.33;1.77;;;11.30;99.90;;;;;;5087536;28;20517;-38
2021/05/22 09:59:01;;;;;;;4.10;1.60;;;11.30;99.90;;;;;;5064883;28;20181;-38
2021/05/22 10:01:32;;;;;;;2.43;1.30;;;11.40;99.90;;;;;;5066941;28;20541;-38
2021/05/22 10:04:17;;;;;;;3.60;1.50;;;11.30;99.90;;;;;;5066784;28;20804;-37
2021/05/22 10:06:43;;;;;;;3.40;1.30;;;11.40;99.90;;;;;;5066926;28;20419;-38
2021/05/22 10:09:10;;;;;;;4.07;1.80;;;11.40;99.90;;;;;;5066672;28;20423;-38
2021/05/22 10:12:06;;;;;;;2.47;1.73;;;11.50;99.90;;;;;;5066620;28;20248;-38
2021/05/22 10:14:36;;;;;;;4.40;1.57;;;11.50;99.90;;;;;;5070003;28;20963;-38
2021/05/22 10:17:03;;;;;;;3.70;1.43;;;11.50;99.90;;;;;;5065586;28;20934;-38
2021/05/22 10:19:31;;;;;;;3.63;1.77;;;11.70;99.90;;;;;;5066327;28;21092;-38
2021/05/22 10:21:57;;;;;;;3.63;1.77;;;11.80;99.90;;;;;;5067131;28;20514;-38
2021/05/22 10:24:24;;;;;;;2.47;1.40;;;11.90;99.90;;;;;;5066983;28;20824;-39
2021/05/22 10:26:51;;;;;;;3.47;1.43;;;11.80;99.90;;;;;;5066812;28;20423;-37
2021/05/22 10:29:18;;;;;;;4.70;1.60;;;11.90;99.90;;;;;;5053589;28;20432;-37
2021/05/22 10:31:43;;;;;;;5.03;1.53;;;11.90;99.90;;;;;;5066476;28;20634;-37
2021/05/22 10:34:15;;;;;;;3.47;1.37;;;11.90;99.90;;;;;;5062813;28;21028;-37
2021/05/22 10:36:58;;;;;;;3.13;1.20;;;11.90;99.90;;;;;;5073127;28;20322;-38
2021/05/22 10:39:44;;;;;;;3.60;1.60;;;11.90;99.90;;;;;;5073578;28;20428;-37
2021/05/22 10:42:29;;;;;;;3.97;2.00;;;11.90;99.90;;;;;;5068931;28;20763;-37
2021/05/22 10:44:56;;;;;;;2.67;1.30;;;12.00;99.90;;;;;;5062630;28;20431;-37
2021/05/22 10:47:36;;;;;;;3.90;1.70;;;12.00;99.90;;;;;;5063088;28;21102;-37
2021/05/22 10:50:05;;;;;;;4.07;1.67;;;12.00;99.90;;;;;;5066572;28;20828;-38
2021/05/22 10:52:34;;;;;;;7.23;1.73;;;12.00;99.90;;;;;;5074694;28;20499;-37
2021/05/22 10:55:04;;;;;;;5.10;2.13;;;12.00;99.90;;;;;;5073168;28;21115;-37
2021/05/22 10:57:32;;;;;;;2.90;1.70;;;12.00;99.90;;;;;;5066471;28;20460;-37
2021/05/22 11:00:17;;;;;;;2.90;1.33;;;11.90;99.90;;;;;;5066604;28;20440;-37
2021/05/22 11:02:46;;;;;;;2.93;1.47;;;11.90;99.90;;;;;;5077952;28;20506;-37
2021/05/22 11:05:21;;;;;;;2.67;1.53;;;12.00;99.90;;;;;;5067726;28;20519;-37
2021/05/22 11:07:47;;;;;;;6.37;2.07;;;12.00;99.90;;;;;;5067784;28;20508;-37
2021/05/22 11:10:45;;;;;;;4.60;1.77;;;12.10;99.90;;;;;;5067245;28;21020;-37
2021/05/22 11:13:21;;;;;;;5.20;2.20;;;12.10;99.90;;;;;;5063773;28;20427;-37
2021/05/22 11:16:02;;;;;;;2.93;1.53;;;12.20;99.90;;;;;;5070646;28;20790;-37
2021/05/22 11:18:51;;;;;;;2.80;1.70;;;12.30;99.90;;;;;;5067474;28;20557;-37
2021/05/22 11:21:25;;;;;;;2.10;1.50;;;12.20;99.90;;;;;;5069407;28;21114;-37
2021/05/22 11:23:56;;;;;;;3.43;1.77;;;12.20;99.90;;;;;;5074715;28;20423;-37
2021/05/22 11:26:50;;;;;;;8.20;2.13;;;12.20;99.90;;;;;;5078934;28;20434;-37
2021/05/22 11:29:16;;;;;;;2.50;1.60;;;12.20;99.90;;;;;;5064800;28;20450;-37
2021/05/22 11:31:42;;;;;;;3.50;1.70;;;12.20;99.90;;;;;;5074976;28;20458;-37
2021/05/22 11:34:20;;;;;;;2.40;1.40;;;12.20;99.90;;;;;;5075454;28;20431;-37
2021/05/22 11:37:11;;;;;;;4.30;2.40;;;12.20;99.90;;;;;;5086242;28;20679;-37
2021/05/22 11:39:38;;;;;;;5.00;2.30;;;12.30;99.90;;;;;;5086955;28;20467;-37
2021/05/22 11:42:29;;;;;;;3.73;1.90;;;12.30;99.90;;;;;;5087866;28;20868;-37
2021/05/22 11:44:56;;;;;;;4.37;1.70;;;12.20;99.90;;;;;;5072943;28;20441;-37
2021/05/22 11:47:22;;;;;;;3.30;1.97;;;12.10;99.90;;;;;;5057976;28;20464;-37
2021/05/22 11:49:47;;;;;;;4.43;2.60;;;12.20;99.90;;;;;;5074132;28;20485;-37
2021/05/22 11:52:30;;;;;;;2.07;1.80;;;12.10;99.90;;;;;;5064541;28;20250;-37
2021/05/22 11:54:56;;;;;;;3.67;1.67;;;12.20;99.90;;;;;;5063115;28;20213;-37
2021/05/22 11:57:22;;;;;;;3.13;1.70;;;12.20;99.90;;;;;;5062573;28;20434;-37
2021/05/22 11:59:48;;;;;;;1.93;1.60;;;12.20;99.90;;;;;;5077693;28;20935;-37
2021/05/22 12:02:33;;;;;;;2.73;1.83;;;12.20;99.90;;;;;;5081233;28;20560;-37
2021/05/22 12:04:59;;;;;;;3.30;1.90;;;12.30;99.90;;;;;;5075325;28;20523;-37
2021/05/22 12:07:24;;;;;;;5.13;2.00;;;12.30;99.90;;;;;;5056181;28;20443;-38
2021/05/22 12:09:50;;;;;;;3.87;2.90;;;12.30;99.90;;;;;;5082960;28;20212;-37
2021/05/22 12:12:16;;;;;;;4.33;1.90;;;12.30;99.90;;;;;;5062140;28;20189;-37
2021/05/22 12:14:46;;;;;;;3.60;2.10;;;12.30;99.90;;;;;;5074340;28;20199;-37
2021/05/22 12:17:19;;;;;;;5.73;3.43;;;12.20;99.90;;;;;;5075007;28;20641;-37
2021/05/22 12:19:50;;;;;;;2.70;2.10;;;12.20;99.90;;;;;;5088049;28;20485;-37
2021/05/22 12:22:26;;;;;;;7.17;2.33;;;12.10;99.90;;;;;;5063210;28;20482;-37
2021/05/22 12:24:54;;;;;;;7.37;2.27;;;12.10;99.90;;;;;;5079811;28;20418;-37
2021/05/22 12:27:20;;;;;;;6.57;2.40;;;12.10;99.90;;;;;;5071842;28;20537;-38
2021/05/22 12:29:54;;;;;;;3.00;1.87;;;12.10;99.90;;;;;;5073608;28;20916;-37
2021/05/22 12:32:21;;;;;;;6.20;2.07;;;12.10;99.90;;;;;;5075703;28;20184;-37
2021/05/22 12:34:57;;;;;;;5.73;2.13;;;12.10;99.90;;;;;;5068663;28;20474;-37
2021/05/22 12:37:22;;;;;;;2.97;2.03;;;12.10;99.90;;;;;;5061647;28;21075;-37
2021/05/22 12:39:51;;;;;;;5.43;2.47;;;12.20;99.90;;;;;;5070210;28;20514;-37
2021/05/22 12:42:23;;;;;;;8.77;1.83;;;12.20;99.90;;;;;;5082958;28;20969;-37
2021/05/22 12:44:51;;;;;;;4.70;1.77;;;12.20;99.90;;;;;;5086524;28;20458;-37
2021/05/22 12:47:21;;;;;;;4.20;2.50;;;12.30;99.90;;;;;;5086976;28;20517;-37
2021/05/22 12:49:58;;;;;;;5.17;2.20;;;12.30;99.90;;;;;;5087615;28;20859;-37
2021/05/22 12:52:25;;;;;;;2.23;1.87;;;12.30;99.90;;;;;;5074731;28;20934;-37
2021/05/22 12:54:52;;;;;;;3.93;2.10;;;12.40;99.90;;;;;;5066025;28;20416;-37